sensor_id;sensor_type;location;lat;lon;timestamp;pressure;altitude;pressure_sealevel;temperature;humidity
7966;BME280;4028;43.272;26.932;2022-08-18T00:02:09;98571.41;;;25.91;63.67
7966;BME280;4028;43.272;26.932;2022-08-18T00:04:36;98566.78;;;25.92;61.90
7966;BME280;4028;43.272;26.932;2022-08-18T00:07:04;98563.81;;;25.93;61.11
7966;BME280;4028;43.272;26.932;2022-08-18T00:09:30;98554.50;;;25.84;60.87
7966;BME280;4028;43.272;26.932;2022-08-18T00:11:55;98573.28;;;25.91;61.53
7966;BME280;4028;43.272;26.932;2022-08-18T00:14:21;98570.31;;;25.92;62.08
7966;BME280;4028;43.272;26.932;2022-08-18T00:16:47;98558.06;;;25.85;63.75
7966;BME280;4028;43.272;26.932;2022-08-18T00:19:13;98577.31;;;25.88;61.32
7966;BME280;4028;43.272;26.932;2022-08-18T00:21:38;98572.16;;;25.87;65.64
7966;BME280;4028;43.272;26.932;2022-08-18T00:24:04;98568.16;;;25.67;69.07
7966;BME280;4028;43.272;26.932;2022-08-18T00:26:30;98587.97;;;25.73;71.04
7966;BME280;4028;43.272;26.932;2022-08-18T00:28:55;98577.03;;;25.63;73.12
7966;BME280;4028;43.272;26.932;2022-08-18T00:31:21;98577.50;;;25.55;72.57
7966;BME280;4028;43.272;26.932;2022-08-18T00:33:46;98578.81;;;25.52;72.37
7966;BME280;4028;43.272;26.932;2022-08-18T00:36:12;98575.25;;;25.47;74.44
7966;BME280;4028;43.272;26.932;2022-08-18T00:38:38;98581.94;;;25.39;78.62
7966;BME280;4028;43.272;26.932;2022-08-18T00:41:04;98558.16;;;25.19;80.26
7966;BME280;4028;43.272;26.932;2022-08-18T00:43:33;98580.44;;;25.26;82.99
7966;BME280;4028;43.272;26.932;2022-08-18T00:46:00;98583.19;;;25.31;83.82
7966;BME280;4028;43.272;26.932;2022-08-18T00:48:26;98581.94;;;25.17;86.19
7966;BME280;4028;43.272;26.932;2022-08-18T00:50:57;98581.72;;;25.02;87.51
7966;BME280;4028;43.272;26.932;2022-08-18T00:53:46;98594.63;;;24.95;91.50
7966;BME280;4028;43.272;26.932;2022-08-18T00:56:20;98591.34;;;24.93;92.68
7966;BME280;4028;43.272;26.932;2022-08-18T00:59:06;98574.72;;;24.84;92.07
7966;BME280;4028;43.272;26.932;2022-08-18T01:01:33;98587.88;;;24.97;91.69
7966;BME280;4028;43.272;26.932;2022-08-18T01:04:21;98589.16;;;24.89;91.13
7966;BME280;4028;43.272;26.932;2022-08-18T01:06:53;98597.75;;;24.86;91.38
7966;BME280;4028;43.272;26.932;2022-08-18T01:09:19;98601.84;;;24.89;93.29
7966;BME280;4028;43.272;26.932;2022-08-18T01:11:45;98598.50;;;24.82;94.27
7966;BME280;4028;43.272;26.932;2022-08-18T01:14:12;98610.31;;;24.76;98.18
7966;BME280;4028;43.272;26.932;2022-08-18T01:16:43;98617.28;;;24.72;95.23
7966;BME280;4028;43.272;26.932;2022-08-18T01:19:28;98580.44;;;24.49;94.21
7966;BME280;4028;43.272;26.932;2022-08-18T01:24:55;98597.69;;;24.81;92.08
7966;BME280;4028;43.272;26.932;2022-08-18T01:27:40;98605.75;;;24.59;96.16
7966;BME280;4028;43.272;26.932;2022-08-18T01:30:09;98603.88;;;24.60;95.61
7966;BME280;4028;43.272;26.932;2022-08-18T01:32:36;98598.47;;;24.60;95.60
7966;BME280;4028;43.272;26.932;2022-08-18T01:35:03;98598.97;;;24.57;97.21
7966;BME280;4028;43.272;26.932;2022-08-18T01:37:29;98576.41;;;24.34;97.24
7966;BME280;4028;43.272;26.932;2022-08-18T01:39:55;98601.16;;;24.60;98.63
7966;BME280;4028;43.272;26.932;2022-08-18T01:42:20;98598.38;;;24.55;100.00
7966;BME280;4028;43.272;26.932;2022-08-18T01:44:47;98601.00;;;24.50;100.00
7966;BME280;4028;43.272;26.932;2022-08-18T01:47:16;98601.34;;;24.53;99.18
7966;BME280;4028;43.272;26.932;2022-08-18T01:49:42;98599.63;;;24.47;100.00
7966;BME280;4028;43.272;26.932;2022-08-18T01:52:15;98594.97;;;24.43;100.00
7966;BME280;4028;43.272;26.932;2022-08-18T01:54:43;98593.88;;;24.44;100.00
7966;BME280;4028;43.272;26.932;2022-08-18T01:57:09;98605.19;;;24.41;100.00
7966;BME280;4028;43.272;26.932;2022-08-18T01:59:37;98598.97;;;24.40;100.00
7966;BME280;4028;43.272;26.932;2022-08-18T02:02:04;98606.78;;;24.36;100.00
7966;BME280;4028;43.272;26.932;2022-08-18T02:04:31;98595.34;;;24.34;100.00
7966;BME280;4028;43.272;26.932;2022-08-18T02:06:58;98579.72;;;24.36;100.00
7966;BME280;4028;43.272;26.932;2022-08-18T02:09:25;98566.09;;;24.31;100.00
7966;BME280;4028;43.272;26.932;2022-08-18T02:11:51;98586.41;;;24.34;100.00
7966;BME280;4028;43.272;26.932;2022-08-18T02:14:16;98574.69;;;24.28;100.00
7966;BME280;4028;43.272;26.932;2022-08-18T02:16:42;98586.31;;;24.29;100.00
7966;BME280;4028;43.272;26.932;2022-08-18T02:19:07;98592.00;;;24.27;100.00
7966;BME280;4028;43.272;26.932;2022-08-18T02:21:33;98596.81;;;24.25;100.00
7966;BME280;4028;43.272;26.932;2022-08-18T02:23:58;98591.91;;;24.22;100.00
7966;BME280;4028;43.272;26.932;2022-08-18T02:26:24;98605.72;;;24.26;100.00
7966;BME280;4028;43.272;26.932;2022-08-18T02:28:50;98590.97;;;24.00;100.00
7966;BME280;4028;43.272;26.932;2022-08-18T02:31:19;98601.22;;;23.98;100.00
7966;BME280;4028;43.272;26.932;2022-08-18T02:33:45;98585.72;;;23.93;100.00
7966;BME280;4028;43.272;26.932;2022-08-18T02:36:12;98601.13;;;24.09;100.00
7966;BME280;4028;43.272;26.932;2022-08-18T02:38:39;98608.03;;;24.17;100.00
7966;BME280;4028;43.272;26.932;2022-08-18T02:41:07;98611.56;;;24.18;100.00
7966;BME280;4028;43.272;26.932;2022-08-18T02:43:34;98616.16;;;24.17;100.00
7966;BME280;4028;43.272;26.932;2022-08-18T02:46:00;98607.94;;;24.12;100.00
7966;BME280;4028;43.272;26.932;2022-08-18T02:48:25;98612.69;;;24.05;100.00
7966;BME280;4028;43.272;26.932;2022-08-18T02:53:26;98613.84;;;24.09;100.00
7966;BME280;4028;43.272;26.932;2022-08-18T02:55:53;98612.28;;;23.96;100.00
7966;BME280;4028;43.272;26.932;2022-08-18T02:58:18;98623.91;;;23.97;100.00
7966;BME280;4028;43.272;26.932;2022-08-18T03:00:44;98627.69;;;23.96;100.00
7966;BME280;4028;43.272;26.932;2022-08-18T03:03:10;98627.91;;;23.94;100.00
7966;BME280;4028;43.272;26.932;2022-08-18T03:05:38;98622.84;;;23.98;100.00
7966;BME280;4028;43.272;26.932;2022-08-18T03:08:03;98631.19;;;23.96;100.00
7966;BME280;4028;43.272;26.932;2022-08-18T03:10:29;98630.22;;;24.02;100.00
7966;BME280;4028;43.272;26.932;2022-08-18T03:12:54;98632.41;;;24.05;100.00
7966;BME280;4028;43.272;26.932;2022-08-18T03:15:20;98630.66;;;24.11;100.00
7966;BME280;4028;43.272;26.932;2022-08-18T03:17:45;98628.88;;;24.05;100.00
7966;BME280;4028;43.272;26.932;2022-08-18T03:20:11;98633.81;;;24.08;100.00
7966;BME280;4028;43.272;26.932;2022-08-18T03:22:37;98636.28;;;24.09;98.05
7966;BME280;4028;43.272;26.932;2022-08-18T03:25:03;98633.91;;;24.30;91.14
7966;BME280;4028;43.272;26.932;2022-08-18T03:27:29;98617.78;;;24.18;90.42
7966;BME280;4028;43.272;26.932;2022-08-18T03:29:54;98635.81;;;24.29;87.90
7966;BME280;4028;43.272;26.932;2022-08-18T03:32:20;98636.50;;;24.36;87.15
7966;BME280;4028;43.272;26.932;2022-08-18T03:34:45;98644.63;;;24.36;85.25
7966;BME280;4028;43.272;26.932;2022-08-18T03:37:11;98636.81;;;24.40;86.03
7966;BME280;4028;43.272;26.932;2022-08-18T03:39:37;98627.56;;;24.36;87.78
7966;BME280;4028;43.272;26.932;2022-08-18T03:42:02;98621.41;;;24.41;83.49
7966;BME280;4028;43.272;26.932;2022-08-18T03:44:31;98643.47;;;24.49;83.47
7966;BME280;4028;43.272;26.932;2022-08-18T03:46:57;98640.75;;;24.49;83.03
7966;BME280;4028;43.272;26.932;2022-08-18T03:49:23;98641.09;;;24.53;83.83
7966;BME280;4028;43.272;26.932;2022-08-18T03:51:50;98640.84;;;24.54;83.32
7966;BME280;4028;43.272;26.932;2022-08-18T03:54:17;98642.81;;;24.59;81.58
7966;BME280;4028;43.272;26.932;2022-08-18T03:56:44;98630.44;;;24.63;83.51
7966;BME280;4028;43.272;26.932;2022-08-18T03:59:16;98647.63;;;24.74;82.43
7966;BME280;4028;43.272;26.932;2022-08-18T04:01:43;98642.56;;;24.77;79.94
7966;BME280;4028;43.272;26.932;2022-08-18T04:04:14;98646.03;;;24.95;78.57
7966;BME280;4028;43.272;26.932;2022-08-18T04:06:47;98642.19;;;24.90;78.10
7966;BME280;4028;43.272;26.932;2022-08-18T04:09:19;98655.72;;;25.07;77.62
7966;BME280;4028;43.272;26.932;2022-08-18T04:11:45;98657.38;;;25.08;76.97
7966;BME280;4028;43.272;26.932;2022-08-18T04:14:16;98653.72;;;25.03;78.42
7966;BME280;4028;43.272;26.932;2022-08-18T04:16:43;98660.19;;;25.02;79.89
7966;BME280;4028;43.272;26.932;2022-08-18T04:19:09;98663.09;;;24.95;80.38
7966;BME280;4028;43.272;26.932;2022-08-18T04:21:39;98633.50;;;24.72;79.57
7966;BME280;4028;43.272;26.932;2022-08-18T04:24:06;98665.56;;;25.57;76.27
7966;BME280;4028;43.272;26.932;2022-08-18T04:26:35;98663.25;;;26.79;66.26
7966;BME280;4028;43.272;26.932;2022-08-18T04:29:02;98671.66;;;27.72;59.18
7966;BME280;4028;43.272;26.932;2022-08-18T04:31:29;98604.44;;;27.58;56.96
7966;BME280;4028;43.272;26.932;2022-08-18T04:33:56;98672.22;;;27.80;56.30
7966;BME280;4028;43.272;26.932;2022-08-18T04:36:23;98672.97;;;27.65;56.66
7966;BME280;4028;43.272;26.932;2022-08-18T04:38:49;98672.31;;;27.42;57.29
7966;BME280;4028;43.272;26.932;2022-08-18T04:41:15;98605.16;;;26.80;58.90
7966;BME280;4028;43.272;26.932;2022-08-18T04:43:40;98668.16;;;26.82;60.26
7966;BME280;4028;43.272;26.932;2022-08-18T04:46:06;98660.41;;;26.64;62.25
7966;BME280;4028;43.272;26.932;2022-08-18T04:48:34;98670.06;;;26.50;64.47
7966;BME280;4028;43.272;26.932;2022-08-18T04:51:07;98685.41;;;26.39;66.01
7966;BME280;4028;43.272;26.932;2022-08-18T04:53:34;98650.47;;;26.10;67.34
7966;BME280;4028;43.272;26.932;2022-08-18T04:56:33;98678.56;;;26.04;68.58
7966;BME280;4028;43.272;26.932;2022-08-18T04:59:08;98678.47;;;25.94;71.68
7966;BME280;4028;43.272;26.932;2022-08-18T05:01:42;98683.06;;;25.93;73.05
7966;BME280;4028;43.272;26.932;2022-08-18T05:04:10;98686.84;;;25.92;72.86
7966;BME280;4028;43.272;26.932;2022-08-18T05:06:38;98686.31;;;25.90;69.79
7966;BME280;4028;43.272;26.932;2022-08-18T05:09:06;98654.03;;;25.67;71.90
7966;BME280;4028;43.272;26.932;2022-08-18T05:11:33;98680.56;;;25.87;72.37
7966;BME280;4028;43.272;26.932;2022-08-18T05:14:04;98689.56;;;25.92;72.12
7966;BME280;4028;43.272;26.932;2022-08-18T05:16:32;98681.16;;;25.94;72.21
7966;BME280;4028;43.272;26.932;2022-08-18T05:19:04;98691.31;;;26.04;71.80
7966;BME280;4028;43.272;26.932;2022-08-18T05:21:30;98701.06;;;26.05;72.68
7966;BME280;4028;43.272;26.932;2022-08-18T05:23:58;98699.72;;;26.02;73.45
7966;BME280;4028;43.272;26.932;2022-08-18T05:26:25;98697.88;;;26.08;73.98
7966;BME280;4028;43.272;26.932;2022-08-18T05:28:51;98703.06;;;26.14;75.87
7966;BME280;4028;43.272;26.932;2022-08-18T05:31:21;98709.25;;;26.10;70.98
7966;BME280;4028;43.272;26.932;2022-08-18T05:33:47;98710.91;;;26.11;72.23
7966;BME280;4028;43.272;26.932;2022-08-18T05:36:53;98706.97;;;26.24;73.18
7966;BME280;4028;43.272;26.932;2022-08-18T05:39:21;98704.91;;;26.36;72.11
7966;BME280;4028;43.272;26.932;2022-08-18T05:44:27;98693.28;;;26.67;67.25
7966;BME280;4028;43.272;26.932;2022-08-18T05:47:02;98699.69;;;26.88;66.12
7966;BME280;4028;43.272;26.932;2022-08-18T05:49:29;98686.53;;;27.07;65.55
7966;BME280;4028;43.272;26.932;2022-08-18T05:52:02;98696.38;;;27.71;63.03
7966;BME280;4028;43.272;26.932;2022-08-18T05:54:42;98700.88;;;28.23;60.01
7966;BME280;4028;43.272;26.932;2022-08-18T05:57:32;98697.69;;;28.97;57.73
7966;BME280;4028;43.272;26.932;2022-08-18T06:00:01;98699.16;;;29.65;55.66
7966;BME280;4028;43.272;26.932;2022-08-18T06:02:42;98701.09;;;30.09;52.31
7966;BME280;4028;43.272;26.932;2022-08-18T06:05:14;98690.84;;;30.69;52.10
7966;BME280;4028;43.272;26.932;2022-08-18T06:10:15;98690.31;;;31.54;48.11
7966;BME280;4028;43.272;26.932;2022-08-18T06:12:43;98692.19;;;31.77;46.96
7966;BME280;4028;43.272;26.932;2022-08-18T06:15:14;98705.34;;;31.99;46.66
7966;BME280;4028;43.272;26.932;2022-08-18T06:28:17;98701.50;;;33.50;43.29
7966;BME280;4028;43.272;26.932;2022-08-18T06:30:45;98707.84;;;33.86;41.37
7966;BME280;4028;43.272;26.932;2022-08-18T06:39:11;98718.94;;;34.45;41.20
7966;BME280;4028;43.272;26.932;2022-08-18T06:41:44;98710.25;;;34.74;40.17
7966;BME280;4028;43.272;26.932;2022-08-18T06:44:22;98709.47;;;34.96;41.48
7966;BME280;4028;43.272;26.932;2022-08-18T06:46:58;98712.81;;;35.24;41.53
7966;BME280;4028;43.272;26.932;2022-08-18T06:49:53;98714.53;;;35.42;39.80
7966;BME280;4028;43.272;26.932;2022-08-18T06:54:49;98691.81;;;35.68;37.97
7966;BME280;4028;43.272;26.932;2022-08-18T06:59:59;98710.28;;;35.05;38.04
7966;BME280;4028;43.272;26.932;2022-08-18T07:07:45;98703.72;;;35.15;37.69
7966;BME280;4028;43.272;26.932;2022-08-18T07:12:39;98702.22;;;35.88;38.41
7966;BME280;4028;43.272;26.932;2022-08-18T07:15:06;98706.97;;;36.05;38.02
7966;BME280;4028;43.272;26.932;2022-08-18T07:17:34;98712.31;;;36.28;37.21
7966;BME280;4028;43.272;26.932;2022-08-18T07:20:09;98714.59;;;36.26;36.79
7966;BME280;4028;43.272;26.932;2022-08-18T07:22:59;98717.66;;;36.15;36.66
7966;BME280;4028;43.272;26.932;2022-08-18T07:25:53;98712.22;;;35.93;36.23
7966;BME280;4028;43.272;26.932;2022-08-18T07:28:33;98712.88;;;35.41;36.93
7966;BME280;4028;43.272;26.932;2022-08-18T07:33:40;98714.06;;;36.24;35.76
7966;BME280;4028;43.272;26.932;2022-08-18T07:36:07;98714.78;;;36.55;36.95
7966;BME280;4028;43.272;26.932;2022-08-18T07:38:50;98713.13;;;36.37;35.97
7966;BME280;4028;43.272;26.932;2022-08-18T07:48:55;98653.41;;;36.84;35.86
7966;BME280;4028;43.272;26.932;2022-08-18T07:51:24;98705.00;;;37.31;35.30
7966;BME280;4028;43.272;26.932;2022-08-18T07:53:58;98703.47;;;37.59;34.05
7966;BME280;4028;43.272;26.932;2022-08-18T07:58:59;98703.47;;;37.89;34.07
7966;BME280;4028;43.272;26.932;2022-08-18T08:01:33;98696.13;;;37.93;33.41
7966;BME280;4028;43.272;26.932;2022-08-18T08:04:16;98694.00;;;37.69;34.16
7966;BME280;4028;43.272;26.932;2022-08-18T08:06:53;98697.47;;;37.87;34.07
7966;BME280;4028;43.272;26.932;2022-08-18T08:12:44;98699.22;;;38.12;32.79
7966;BME280;4028;43.272;26.932;2022-08-18T08:21:14;98701.13;;;37.70;33.79
7966;BME280;4028;43.272;26.932;2022-08-18T08:32:10;98706.22;;;37.59;34.98
7966;BME280;4028;43.272;26.932;2022-08-18T08:37:09;98718.84;;;37.69;33.67
7966;BME280;4028;43.272;26.932;2022-08-18T08:39:54;98718.69;;;37.18;32.93
7966;BME280;4028;43.272;26.932;2022-08-18T08:45:21;98709.00;;;37.12;32.30
7966;BME280;4028;43.272;26.932;2022-08-18T08:48:06;98699.50;;;37.39;32.56
7966;BME280;4028;43.272;26.932;2022-08-18T08:50:48;98703.88;;;37.40;32.24
7966;BME280;4028;43.272;26.932;2022-08-18T08:53:27;98703.03;;;36.93;32.90
7966;BME280;4028;43.272;26.932;2022-08-18T08:56:06;98701.13;;;36.59;33.47
7966;BME280;4028;43.272;26.932;2022-08-18T08:58:59;98701.94;;;36.77;33.56
7966;BME280;4028;43.272;26.932;2022-08-18T09:01:46;98705.97;;;36.97;33.84
7966;BME280;4028;43.272;26.932;2022-08-18T09:04:36;98697.75;;;36.53;32.82
7966;BME280;4028;43.272;26.932;2022-08-18T09:20:57;98695.13;;;38.18;31.85
7966;BME280;4028;43.272;26.932;2022-08-18T09:23:34;98684.63;;;38.12;30.27
7966;BME280;4028;43.272;26.932;2022-08-18T09:29:16;98681.50;;;37.33;32.36
7966;BME280;4028;43.272;26.932;2022-08-18T09:31:46;98672.00;;;37.52;32.32
7966;BME280;4028;43.272;26.932;2022-08-18T09:34:36;98678.47;;;37.85;31.36
7966;BME280;4028;43.272;26.932;2022-08-18T09:37:19;98676.59;;;37.98;31.96
7966;BME280;4028;43.272;26.932;2022-08-18T09:40:09;98682.94;;;38.40;30.67
7966;BME280;4028;43.272;26.932;2022-08-18T09:43:16;98676.06;;;37.54;31.90
7966;BME280;4028;43.272;26.932;2022-08-18T09:45:57;98673.75;;;37.56;30.26
7966;BME280;4028;43.272;26.932;2022-08-18T09:48:39;98678.22;;;37.69;31.64
7966;BME280;4028;43.272;26.932;2022-08-18T09:56:16;98677.97;;;38.67;31.39
7966;BME280;4028;43.272;26.932;2022-08-18T09:59:01;98670.06;;;38.78;30.08
7966;BME280;4028;43.272;26.932;2022-08-18T10:06:38;98653.69;;;38.18;29.00
7966;BME280;4028;43.272;26.932;2022-08-18T10:12:16;98657.09;;;38.57;30.27
7966;BME280;4028;43.272;26.932;2022-08-18T10:22:42;98657.25;;;37.09;31.87
7966;BME280;4028;43.272;26.932;2022-08-18T10:25:10;98659.81;;;36.33;33.10
7966;BME280;4028;43.272;26.932;2022-08-18T10:32:53;98638.78;;;36.11;33.30
7966;BME280;4028;43.272;26.932;2022-08-18T10:38:18;98671.66;;;36.25;32.54
7966;BME280;4028;43.272;26.932;2022-08-18T10:41:05;98657.19;;;35.76;33.00
7966;BME280;4028;43.272;26.932;2022-08-18T10:43:42;98662.91;;;35.39;33.49
7966;BME280;4028;43.272;26.932;2022-08-18T10:46:23;98659.88;;;35.50;34.58
7966;BME280;4028;43.272;26.932;2022-08-18T10:49:18;98660.31;;;36.17;33.53
7966;BME280;4028;43.272;26.932;2022-08-18T10:51:59;98663.69;;;36.40;33.76
7966;BME280;4028;43.272;26.932;2022-08-18T10:55:17;98662.59;;;36.41;33.30
7966;BME280;4028;43.272;26.932;2022-08-18T10:57:51;98650.56;;;36.29;33.72
7966;BME280;4028;43.272;26.932;2022-08-18T11:00:20;98650.25;;;35.96;33.54
7966;BME280;4028;43.272;26.932;2022-08-18T11:05:33;98619.97;;;35.78;33.72
7966;BME280;4028;43.272;26.932;2022-08-18T11:08:03;98643.94;;;36.12;33.59
7966;BME280;4028;43.272;26.932;2022-08-18T11:13:29;98647.31;;;35.75;33.68
7966;BME280;4028;43.272;26.932;2022-08-18T11:18:50;98645.72;;;36.17;33.46
7966;BME280;4028;43.272;26.932;2022-08-18T11:31:43;98656.25;;;35.40;35.18
7966;BME280;4028;43.272;26.932;2022-08-18T11:34:20;98646.19;;;35.27;35.08
7966;BME280;4028;43.272;26.932;2022-08-18T11:36:58;98644.13;;;35.41;35.57
7966;BME280;4028;43.272;26.932;2022-08-18T11:39:26;98644.22;;;35.76;34.55
7966;BME280;4028;43.272;26.932;2022-08-18T11:41:52;98644.59;;;36.18;34.02
7966;BME280;4028;43.272;26.932;2022-08-18T11:44:23;98644.13;;;36.16;32.79
7966;BME280;4028;43.272;26.932;2022-08-18T11:46:54;98629.81;;;35.71;33.01
7966;BME280;4028;43.272;26.932;2022-08-18T11:49:32;98624.28;;;35.62;34.11
7966;BME280;4028;43.272;26.932;2022-08-18T11:52:27;98622.03;;;35.64;34.50
7966;BME280;4028;43.272;26.932;2022-08-18T11:55:00;98630.28;;;35.55;34.51
7966;BME280;4028;43.272;26.932;2022-08-18T11:57:48;98634.53;;;35.30;35.10
7966;BME280;4028;43.272;26.932;2022-08-18T12:00:40;98620.06;;;34.99;35.53
7966;BME280;4028;43.272;26.932;2022-08-18T12:05:47;98613.50;;;35.17;35.31
7966;BME280;4028;43.272;26.932;2022-08-18T12:08:37;98602.44;;;35.57;34.18
7966;BME280;4028;43.272;26.932;2022-08-18T12:11:16;98596.31;;;35.86;33.89
7966;BME280;4028;43.272;26.932;2022-08-18T12:13:44;98604.41;;;35.91;32.73
7966;BME280;4028;43.272;26.932;2022-08-18T12:16:16;98594.19;;;35.65;34.26
7966;BME280;4028;43.272;26.932;2022-08-18T12:18:43;98605.19;;;35.48;34.57
7966;BME280;4028;43.272;26.932;2022-08-18T12:21:09;98595.50;;;35.02;35.12
7966;BME280;4028;43.272;26.932;2022-08-18T12:23:38;98591.28;;;35.05;35.85
7966;BME280;4028;43.272;26.932;2022-08-18T12:26:04;98597.16;;;35.12;36.54
7966;BME280;4028;43.272;26.932;2022-08-18T12:28:29;98590.13;;;35.46;35.87
7966;BME280;4028;43.272;26.932;2022-08-18T12:30:54;98591.44;;;35.48;34.61
7966;BME280;4028;43.272;26.932;2022-08-18T12:33:20;98590.94;;;35.55;34.49
7966;BME280;4028;43.272;26.932;2022-08-18T12:35:45;98591.25;;;35.45;34.53
7966;BME280;4028;43.272;26.932;2022-08-18T12:38:11;98593.06;;;35.58;34.61
7966;BME280;4028;43.272;26.932;2022-08-18T12:40:38;98585.97;;;35.74;34.77
7966;BME280;4028;43.272;26.932;2022-08-18T12:43:04;98586.09;;;35.60;34.07
7966;BME280;4028;43.272;26.932;2022-08-18T12:45:30;98576.25;;;35.59;34.55
7966;BME280;4028;43.272;26.932;2022-08-18T12:47:55;98581.72;;;35.77;34.46
7966;BME280;4028;43.272;26.932;2022-08-18T12:50:21;98567.81;;;35.56;34.10
7966;BME280;4028;43.272;26.932;2022-08-18T12:52:47;98576.38;;;35.54;34.58
7966;BME280;4028;43.272;26.932;2022-08-18T12:55:12;98583.19;;;35.48;nan
7966;BME280;4028;43.272;26.932;2022-08-18T12:57:38;98577.63;;;35.39;34.59
7966;BME280;4028;43.272;26.932;2022-08-18T13:00:05;98587.94;;;35.25;34.97
7966;BME280;4028;43.272;26.932;2022-08-18T13:02:32;98589.94;;;34.94;35.30
7966;BME280;4028;43.272;26.932;2022-08-18T13:04:58;98589.81;;;34.68;35.40
7966;BME280;4028;43.272;26.932;2022-08-18T13:07:23;98592.41;;;34.42;35.31
7966;BME280;4028;43.272;26.932;2022-08-18T13:09:49;98586.59;;;33.98;35.92
7966;BME280;4028;43.272;26.932;2022-08-18T13:12:15;98587.56;;;33.94;36.54
7966;BME280;4028;43.272;26.932;2022-08-18T13:14:41;98592.94;;;33.85;36.14
7966;BME280;4028;43.272;26.932;2022-08-18T13:17:07;98594.34;;;33.82;36.25
7966;BME280;4028;43.272;26.932;2022-08-18T13:19:33;98598.53;;;33.80;36.71
7966;BME280;4028;43.272;26.932;2022-08-18T13:21:59;98588.00;;;33.73;37.18
7966;BME280;4028;43.272;26.932;2022-08-18T13:24:24;98597.78;;;33.88;37.48
7966;BME280;4028;43.272;26.932;2022-08-18T13:26:50;98568.47;;;33.75;37.57
7966;BME280;4028;43.272;26.932;2022-08-18T13:29:16;98595.28;;;33.78;37.48
7966;BME280;4028;43.272;26.932;2022-08-18T13:31:43;98597.91;;;33.83;37.72
7966;BME280;4028;43.272;26.932;2022-08-18T13:34:08;98589.34;;;33.98;38.45
7966;BME280;4028;43.272;26.932;2022-08-18T13:36:34;98599.53;;;33.84;38.47
7966;BME280;4028;43.272;26.932;2022-08-18T13:39:10;98586.31;;;34.00;38.42
7966;BME280;4028;43.272;26.932;2022-08-18T13:41:36;98584.13;;;34.10;38.22
7966;BME280;4028;43.272;26.932;2022-08-18T13:44:02;98556.41;;;33.98;38.63
7966;BME280;4028;43.272;26.932;2022-08-18T13:46:27;98587.88;;;34.14;38.46
7966;BME280;4028;43.272;26.932;2022-08-18T13:48:52;98586.69;;;33.93;38.84
7966;BME280;4028;43.272;26.932;2022-08-18T13:51:21;98580.13;;;33.94;38.67
7966;BME280;4028;43.272;26.932;2022-08-18T13:53:47;98582.06;;;33.80;38.76
7966;BME280;4028;43.272;26.932;2022-08-18T13:56:13;98573.03;;;33.79;38.83
7966;BME280;4028;43.272;26.932;2022-08-18T13:58:39;98575.06;;;34.10;39.03
7966;BME280;4028;43.272;26.932;2022-08-18T14:01:06;98576.03;;;34.14;38.94
7966;BME280;4028;43.272;26.932;2022-08-18T14:03:32;98566.66;;;33.93;38.53
7966;BME280;4028;43.272;26.932;2022-08-18T14:06:03;98577.88;;;33.96;38.73
7966;BME280;4028;43.272;26.932;2022-08-18T14:08:29;98580.28;;;33.98;38.52
7966;BME280;4028;43.272;26.932;2022-08-18T14:10:58;98573.19;;;33.97;38.40
7966;BME280;4028;43.272;26.932;2022-08-18T14:13:25;98571.28;;;33.83;38.39
7966;BME280;4028;43.272;26.932;2022-08-18T14:15:53;98577.97;;;33.91;38.94
7966;BME280;4028;43.272;26.932;2022-08-18T14:18:19;98553.75;;;33.93;39.09
7966;BME280;4028;43.272;26.932;2022-08-18T14:20:45;98572.25;;;34.01;38.32
7966;BME280;4028;43.272;26.932;2022-08-18T14:23:29;98572.13;;;34.06;38.79
7966;BME280;4028;43.272;26.932;2022-08-18T14:26:13;98563.53;;;33.99;38.96
7966;BME280;4028;43.272;26.932;2022-08-18T14:28:56;98544.78;;;33.79;37.36
7966;BME280;4028;43.272;26.932;2022-08-18T14:31:22;98541.16;;;33.70;36.82
7966;BME280;4028;43.272;26.932;2022-08-18T14:33:48;98580.94;;;33.81;36.35
7966;BME280;4028;43.272;26.932;2022-08-18T14:36:14;98579.81;;;33.82;36.78
7966;BME280;4028;43.272;26.932;2022-08-18T14:38:41;98578.19;;;33.95;36.82
7966;BME280;4028;43.272;26.932;2022-08-18T14:41:09;98571.28;;;33.83;37.31
7966;BME280;4028;43.272;26.932;2022-08-18T14:43:36;98564.13;;;33.74;36.61
7966;BME280;4028;43.272;26.932;2022-08-18T14:46:02;98571.91;;;33.94;36.46
7966;BME280;4028;43.272;26.932;2022-08-18T14:48:29;98558.09;;;33.72;36.52
7966;BME280;4028;43.272;26.932;2022-08-18T14:50:56;98567.09;;;33.63;36.86
7966;BME280;4028;43.272;26.932;2022-08-18T14:53:27;98572.56;;;33.63;36.90
7966;BME280;4028;43.272;26.932;2022-08-18T14:55:53;98565.06;;;33.55;36.90
7966;BME280;4028;43.272;26.932;2022-08-18T14:58:21;98563.06;;;33.20;37.07
7966;BME280;4028;43.272;26.932;2022-08-18T15:00:51;98561.94;;;33.21;37.24
7966;BME280;4028;43.272;26.932;2022-08-18T15:03:16;98558.94;;;33.22;37.58
7966;BME280;4028;43.272;26.932;2022-08-18T15:05:41;98564.31;;;33.14;37.50
7966;BME280;4028;43.272;26.932;2022-08-18T15:08:07;98562.78;;;32.94;38.01
7966;BME280;4028;43.272;26.932;2022-08-18T15:10:33;98540.56;;;32.81;38.37
7966;BME280;4028;43.272;26.932;2022-08-18T15:12:59;98554.16;;;32.86;38.25
7966;BME280;4028;43.272;26.932;2022-08-18T15:15:26;98551.03;;;32.93;38.78
7966;BME280;4028;43.272;26.932;2022-08-18T15:17:51;98561.25;;;32.88;38.28
7966;BME280;4028;43.272;26.932;2022-08-18T15:20:17;98559.72;;;32.81;38.16
7966;BME280;4028;43.272;26.932;2022-08-18T15:22:45;98562.56;;;32.90;38.64
7966;BME280;4028;43.272;26.932;2022-08-18T15:25:29;98563.97;;;32.88;38.69
7966;BME280;4028;43.272;26.932;2022-08-18T15:28:18;98554.34;;;32.90;38.96
7966;BME280;4028;43.272;26.932;2022-08-18T15:30:46;98553.13;;;32.96;39.02
7966;BME280;4028;43.272;26.932;2022-08-18T15:33:12;98544.41;;;32.94;39.12
7966;BME280;4028;43.272;26.932;2022-08-18T15:35:40;98554.88;;;32.92;39.27
7966;BME280;4028;43.272;26.932;2022-08-18T15:38:06;98543.41;;;32.90;39.28
7966;BME280;4028;43.272;26.932;2022-08-18T15:40:32;98545.81;;;32.78;39.76
7966;BME280;4028;43.272;26.932;2022-08-18T15:42:59;98544.38;;;32.80;39.63
7966;BME280;4028;43.272;26.932;2022-08-18T15:45:31;98539.53;;;32.77;39.72
7966;BME280;4028;43.272;26.932;2022-08-18T15:48:00;98540.34;;;32.78;39.37
7966;BME280;4028;43.272;26.932;2022-08-18T15:50:25;98542.75;;;32.66;39.78
7966;BME280;4028;43.272;26.932;2022-08-18T15:52:55;98536.97;;;32.53;39.75